Saint George, UT

7:59 PM MST on December 05, 2016 (GMT -0700)
APRSWXNET | | Change Station

Elev 2860 ft 37.09 °N, 113.58 °W | Updated 27 minutes ago

Clear
Clear
48 °F
Feels Like 48 °F
N
0
Wind Variable Wind from SSE
Gusts 0.0 mph

Today
High -- | Low -- °F
--% Chance of Precip.
Yesterday
High -- | Low -- °F
Precip. -- in
Pressure 29.91 in
Visibility 10.0 miles
Clouds Clear
Windchill 48 °F
Dew Point 27 °F
Humidity 43%
Rainfall in
Snow Depth Not available.
7:33 AM 5:17 PM
Waxing Crescent, 37% visible
METAR KSGU 060255Z 32003KT 10SM CLR 09/M08 A2991 RMK AO1 52003
Pressure 29.91 in
Visibility 10.0 miles
Clouds Clear
Windchill 48 °F
Dew Point 27 °F
Humidity 43%
Rainfall in
Snow Depth Not available.
7:33 AM 5:17 PM
Waxing Crescent, 37% visible
METAR KSGU 060255Z 32003KT 10SM CLR 09/M08 A2991 RMK AO1 52003

10-Day Weather Forecast

Almanac

Astronomy

Dec. 05, 2016 Rise Set
Actual Time
Civil Twilight
Nautical Twilight
Astronomical Twilight
Moon
Length of Visible Light
Length of Day
Tomorrow will be .
, % of the Moon is Illuminated

Today's Extremes

State Highs State Lows

Community

WunderPhotos

Upload Photos

1,955,908 photos uploaded!

WunderBlog® & News

Nearby

Air Quality

  Air Quality AQ Index Pollutant
Not available.

Snow Depth

Station Depth Elevation

Earthquake Activity

City Distance Mag. Time & Date
Minimum magnitude displayed is 2.5.

Coastal Water Temperatures

Place Temperature

Stations

Nearby Weather Stations

Station Location Temp. Windchill Dew Point Humidity Wind Precip. Elev Updated Type
                   

Watches & Warnings

There are currently no watches in effect.